sensor_id;sensor_type;location;lat;lon;timestamp;pressure;altitude;pressure_sealevel;temperature;humidity
49627;BME280;35527;54.616;39.786;2022-08-18T00:02:29;100073.66;;;19.39;100.00
49627;BME280;35527;54.616;39.786;2022-08-18T00:05:35;100074.41;;;19.41;100.00
49627;BME280;35527;54.616;39.786;2022-08-18T00:08:39;100066.84;;;19.36;100.00
49627;BME280;35527;54.616;39.786;2022-08-18T00:11:44;100074.50;;;19.40;100.00
49627;BME280;35527;54.616;39.786;2022-08-18T00:14:50;100084.38;;;19.36;100.00
49627;BME280;35527;54.616;39.786;2022-08-18T00:17:57;100075.50;;;19.26;100.00
49627;BME280;35527;54.616;39.786;2022-08-18T00:21:01;100074.97;;;19.21;100.00
49627;BME280;35527;54.616;39.786;2022-08-18T00:24:06;100074.28;;;19.06;100.00
49627;BME280;35527;54.616;39.786;2022-08-18T00:27:09;100078.66;;;19.05;100.00
49627;BME280;35527;54.616;39.786;2022-08-18T00:30:20;100082.56;;;19.00;100.00
49627;BME280;35527;54.616;39.786;2022-08-18T00:33:26;100071.88;;;18.90;100.00
49627;BME280;35527;54.616;39.786;2022-08-18T00:36:30;100073.06;;;18.86;100.00
49627;BME280;35527;54.616;39.786;2022-08-18T00:39:33;100083.00;;;18.94;100.00
49627;BME280;35527;54.616;39.786;2022-08-18T00:42:48;100072.19;;;18.85;100.00
49627;BME280;35527;54.616;39.786;2022-08-18T00:45:52;100094.53;;;18.91;100.00
49627;BME280;35527;54.616;39.786;2022-08-18T00:49:24;100088.88;;;18.84;100.00
49627;BME280;35527;54.616;39.786;2022-08-18T00:52:27;100064.63;;;18.68;100.00
49627;BME280;35527;54.616;39.786;2022-08-18T00:55:32;100099.50;;;18.83;100.00
49627;BME280;35527;54.616;39.786;2022-08-18T00:58:47;100103.16;;;18.80;100.00
49627;BME280;35527;54.616;39.786;2022-08-18T01:01:51;100103.03;;;18.82;100.00
49627;BME280;35527;54.616;39.786;2022-08-18T01:05:06;100107.03;;;18.87;100.00
49627;BME280;35527;54.616;39.786;2022-08-18T01:08:14;100102.50;;;18.77;100.00
49627;BME280;35527;54.616;39.786;2022-08-18T01:11:21;100077.72;;;18.68;100.00
49627;BME280;35527;54.616;39.786;2022-08-18T01:14:24;100060.97;;;18.58;100.00
49627;BME280;35527;54.616;39.786;2022-08-18T01:17:26;100079.50;;;18.67;100.00
49627;BME280;35527;54.616;39.786;2022-08-18T01:21:24;100093.59;;;18.79;100.00
49627;BME280;35527;54.616;39.786;2022-08-18T01:24:51;100089.09;;;18.81;100.00
49627;BME280;35527;54.616;39.786;2022-08-18T01:28:16;100084.91;;;18.79;100.00
49627;BME280;35527;54.616;39.786;2022-08-18T01:35:02;100093.81;;;18.76;100.00
49627;BME280;35527;54.616;39.786;2022-08-18T01:38:09;100097.56;;;18.72;100.00
49627;BME280;35527;54.616;39.786;2022-08-18T01:41:17;100049.84;;;18.41;100.00
49627;BME280;35527;54.616;39.786;2022-08-18T01:44:21;100098.28;;;18.61;100.00
49627;BME280;35527;54.616;39.786;2022-08-18T01:47:24;100075.84;;;18.44;100.00
49627;BME280;35527;54.616;39.786;2022-08-18T01:50:26;100093.06;;;18.49;100.00
49627;BME280;35527;54.616;39.786;2022-08-18T01:53:34;100094.94;;;18.46;100.00
49627;BME280;35527;54.616;39.786;2022-08-18T01:56:40;100073.63;;;18.38;100.00
49627;BME280;35527;54.616;39.786;2022-08-18T01:59:48;100095.66;;;18.49;100.00
49627;BME280;35527;54.616;39.786;2022-08-18T02:02:55;100094.81;;;18.48;100.00
49627;BME280;35527;54.616;39.786;2022-08-18T02:06:03;100083.06;;;18.41;100.00
49627;BME280;35527;54.616;39.786;2022-08-18T02:09:38;100087.38;;;18.42;100.00
49627;BME280;35527;54.616;39.786;2022-08-18T02:12:47;100090.31;;;18.37;100.00
49627;BME280;35527;54.616;39.786;2022-08-18T02:15:50;100088.63;;;18.36;100.00
49627;BME280;35527;54.616;39.786;2022-08-18T02:18:54;100088.72;;;18.35;100.00
49627;BME280;35527;54.616;39.786;2022-08-18T02:21:58;100046.78;;;18.09;100.00
49627;BME280;35527;54.616;39.786;2022-08-18T02:25:09;100063.03;;;18.14;100.00
49627;BME280;35527;54.616;39.786;2022-08-18T02:28:12;100102.38;;;18.40;100.00
49627;BME280;35527;54.616;39.786;2022-08-18T02:31:21;100082.84;;;18.31;100.00
49627;BME280;35527;54.616;39.786;2022-08-18T02:34:27;100094.38;;;18.41;100.00
49627;BME280;35527;54.616;39.786;2022-08-18T02:37:32;100075.94;;;18.30;100.00
49627;BME280;35527;54.616;39.786;2022-08-18T02:40:38;100074.78;;;18.34;100.00
49627;BME280;35527;54.616;39.786;2022-08-18T02:43:41;100098.19;;;18.37;100.00
49627;BME280;35527;54.616;39.786;2022-08-18T02:46:51;100094.81;;;18.35;100.00
49627;BME280;35527;54.616;39.786;2022-08-18T02:49:57;100103.28;;;18.39;100.00
49627;BME280;35527;54.616;39.786;2022-08-18T02:53:01;100111.78;;;18.42;100.00
49627;BME280;35527;54.616;39.786;2022-08-18T02:56:15;100119.16;;;18.50;100.00
49627;BME280;35527;54.616;39.786;2022-08-18T02:59:33;100108.97;;;18.45;100.00
49627;BME280;35527;54.616;39.786;2022-08-18T03:02:44;100109.69;;;18.48;100.00
49627;BME280;35527;54.616;39.786;2022-08-18T03:05:46;100105.19;;;18.50;100.00
49627;BME280;35527;54.616;39.786;2022-08-18T03:08:50;100116.84;;;18.58;100.00
49627;BME280;35527;54.616;39.786;2022-08-18T03:11:56;100107.59;;;18.65;100.00
49627;BME280;35527;54.616;39.786;2022-08-18T03:15:00;100083.72;;;18.57;100.00
49627;BME280;35527;54.616;39.786;2022-08-18T03:18:05;100102.72;;;18.74;100.00
49627;BME280;35527;54.616;39.786;2022-08-18T03:21:13;100112.91;;;18.78;100.00
49627;BME280;35527;54.616;39.786;2022-08-18T03:24:20;100079.44;;;18.69;100.00
49627;BME280;35527;54.616;39.786;2022-08-18T03:27:28;100107.16;;;18.86;100.00
49627;BME280;35527;54.616;39.786;2022-08-18T03:30:32;100110.59;;;18.86;100.00
49627;BME280;35527;54.616;39.786;2022-08-18T03:33:36;100114.69;;;18.90;100.00
49627;BME280;35527;54.616;39.786;2022-08-18T03:36:40;100094.25;;;18.83;100.00
49627;BME280;35527;54.616;39.786;2022-08-18T03:39:44;100121.28;;;18.96;100.00
49627;BME280;35527;54.616;39.786;2022-08-18T03:42:49;100108.91;;;18.98;100.00
49627;BME280;35527;54.616;39.786;2022-08-18T03:45:53;100095.50;;;18.90;100.00
49627;BME280;35527;54.616;39.786;2022-08-18T03:48:58;100098.41;;;18.98;100.00
49627;BME280;35527;54.616;39.786;2022-08-18T03:52:07;100103.84;;;19.08;99.48
49627;BME280;35527;54.616;39.786;2022-08-18T03:55:10;100097.88;;;19.19;98.88
49627;BME280;35527;54.616;39.786;2022-08-18T03:58:50;100123.53;;;19.52;97.58
49627;BME280;35527;54.616;39.786;2022-08-18T04:02:02;100120.00;;;19.64;96.27
49627;BME280;35527;54.616;39.786;2022-08-18T04:05:07;100101.72;;;19.63;96.06
49627;BME280;35527;54.616;39.786;2022-08-18T04:08:13;100117.13;;;19.80;95.80
49627;BME280;35527;54.616;39.786;2022-08-18T04:11:16;100113.19;;;19.74;95.39
49627;BME280;35527;54.616;39.786;2022-08-18T04:14:23;100070.59;;;19.45;95.02
49627;BME280;35527;54.616;39.786;2022-08-18T04:17:26;100118.91;;;19.79;93.85
49627;BME280;35527;54.616;39.786;2022-08-18T04:20:33;100104.94;;;19.79;93.80
49627;BME280;35527;54.616;39.786;2022-08-18T04:23:39;100113.50;;;19.94;94.67
49627;BME280;35527;54.616;39.786;2022-08-18T04:26:45;100114.00;;;19.99;95.27
49627;BME280;35527;54.616;39.786;2022-08-18T04:30:17;100122.53;;;20.14;94.81
49627;BME280;35527;54.616;39.786;2022-08-18T04:33:23;100114.00;;;20.34;93.86
49627;BME280;35527;54.616;39.786;2022-08-18T04:36:28;100106.38;;;20.42;92.31
49627;BME280;35527;54.616;39.786;2022-08-18T04:39:34;100116.03;;;20.55;91.56
49627;BME280;35527;54.616;39.786;2022-08-18T04:42:37;100115.34;;;20.75;90.99
49627;BME280;35527;54.616;39.786;2022-08-18T04:45:41;100116.88;;;21.11;87.64
49627;BME280;35527;54.616;39.786;2022-08-18T04:48:45;100112.19;;;21.60;83.32
49627;BME280;35527;54.616;39.786;2022-08-18T04:51:54;100119.53;;;22.32;79.56
49627;BME280;35527;54.616;39.786;2022-08-18T04:55:15;100122.94;;;23.67;71.42
49627;BME280;35527;54.616;39.786;2022-08-18T04:58:22;100136.66;;;24.97;62.79
49627;BME280;35527;54.616;39.786;2022-08-18T05:01:29;100131.63;;;26.04;56.22
49627;BME280;35527;54.616;39.786;2022-08-18T05:04:38;100136.53;;;26.70;52.63
49627;BME280;35527;54.616;39.786;2022-08-18T05:07:45;100118.44;;;27.93;48.18
49627;BME280;35527;54.616;39.786;2022-08-18T05:10:55;100126.06;;;28.70;44.86
49627;BME280;35527;54.616;39.786;2022-08-18T05:14:07;100124.91;;;28.40;45.52
49627;BME280;35527;54.616;39.786;2022-08-18T05:17:13;100141.53;;;28.66;45.78
49627;BME280;35527;54.616;39.786;2022-08-18T05:20:17;100150.22;;;30.18;41.97
49627;BME280;35527;54.616;39.786;2022-08-18T05:23:22;100124.34;;;30.18;40.00
49627;BME280;35527;54.616;39.786;2022-08-18T05:26:26;100125.63;;;30.30;40.34
49627;BME280;35527;54.616;39.786;2022-08-18T05:29:29;100144.44;;;31.71;37.09
49627;BME280;35527;54.616;39.786;2022-08-18T05:32:41;100142.13;;;33.16;34.58
49627;BME280;35527;54.616;39.786;2022-08-18T05:35:50;100146.59;;;33.51;34.07
49627;BME280;35527;54.616;39.786;2022-08-18T05:39:11;100141.72;;;32.85;34.90
49627;BME280;35527;54.616;39.786;2022-08-18T05:42:21;100145.72;;;31.09;37.55
49627;BME280;35527;54.616;39.786;2022-08-18T05:45:26;100138.59;;;31.16;37.33
49627;BME280;35527;54.616;39.786;2022-08-18T05:48:33;100132.53;;;31.22;37.15
49627;BME280;35527;54.616;39.786;2022-08-18T05:51:42;100133.59;;;31.94;35.86
49627;BME280;35527;54.616;39.786;2022-08-18T05:54:53;100116.38;;;32.03;35.18
49627;BME280;35527;54.616;39.786;2022-08-18T05:58:29;100130.97;;;33.06;33.48
49627;BME280;35527;54.616;39.786;2022-08-18T06:01:40;100129.44;;;33.45;31.71
49627;BME280;35527;54.616;39.786;2022-08-18T06:19:29;100141.75;;;33.87;30.94
49627;BME280;35527;54.616;39.786;2022-08-18T06:22:59;100134.75;;;34.80;29.99
49627;BME280;35527;54.616;39.786;2022-08-18T06:35:59;100134.81;;;34.46;28.97
49627;BME280;35527;54.616;39.786;2022-08-18T06:39:24;100136.88;;;34.64;29.18
49627;BME280;35527;54.616;39.786;2022-08-18T06:42:29;100142.44;;;34.36;29.20
49627;BME280;35527;54.616;39.786;2022-08-18T06:45:35;100153.59;;;34.00;30.35
49627;BME280;35527;54.616;39.786;2022-08-18T06:51:58;100123.03;;;31.19;34.96
49627;BME280;35527;54.616;39.786;2022-08-18T06:58:34;100139.34;;;30.80;35.87
49627;BME280;35527;54.616;39.786;2022-08-18T07:01:38;100137.06;;;30.92;35.10
49627;BME280;35527;54.616;39.786;2022-08-18T07:05:01;100124.09;;;30.51;35.31
49627;BME280;35527;54.616;39.786;2022-08-18T07:08:16;100125.84;;;29.98;36.45
49627;BME280;35527;54.616;39.786;2022-08-18T07:11:26;100147.44;;;29.88;36.87
49627;BME280;35527;54.616;39.786;2022-08-18T07:14:29;100149.81;;;30.06;37.02
49627;BME280;35527;54.616;39.786;2022-08-18T07:17:35;100142.81;;;30.05;37.25
49627;BME280;35527;54.616;39.786;2022-08-18T07:20:50;100140.22;;;29.97;37.98
49627;BME280;35527;54.616;39.786;2022-08-18T07:24:04;100136.56;;;29.90;38.01
49627;BME280;35527;54.616;39.786;2022-08-18T07:27:47;100128.88;;;31.59;35.13
49627;BME280;35527;54.616;39.786;2022-08-18T07:30:53;100133.13;;;34.65;30.19
49627;BME280;35527;54.616;39.786;2022-08-18T07:41:07;100124.59;;;35.85;28.00
49627;BME280;35527;54.616;39.786;2022-08-18T07:47:49;100105.94;;;35.07;28.51
49627;BME280;35527;54.616;39.786;2022-08-18T07:51:22;100106.84;;;36.78;26.22
49627;BME280;35527;54.616;39.786;2022-08-18T07:54:55;100116.19;;;38.02;24.36
49627;BME280;35527;54.616;39.786;2022-08-18T08:01:47;100116.97;;;38.45;24.12
49627;BME280;35527;54.616;39.786;2022-08-18T08:14:43;100089.16;;;38.73;21.53
49627;BME280;35527;54.616;39.786;2022-08-18T08:21:15;100095.78;;;37.76;23.31
49627;BME280;35527;54.616;39.786;2022-08-18T08:24:48;100079.22;;;36.94;24.21
49627;BME280;35527;54.616;39.786;2022-08-18T08:31:35;100096.47;;;36.93;24.67
49627;BME280;35527;54.616;39.786;2022-08-18T08:34:48;100090.28;;;37.83;23.44
49627;BME280;35527;54.616;39.786;2022-08-18T08:37:59;100092.53;;;37.26;23.33
49627;BME280;35527;54.616;39.786;2022-08-18T08:44:55;100076.75;;;35.49;25.45
49627;BME280;35527;54.616;39.786;2022-08-18T08:48:25;100081.97;;;36.07;24.24
49627;BME280;35527;54.616;39.786;2022-08-18T08:51:36;100062.59;;;36.79;24.05
49627;BME280;35527;54.616;39.786;2022-08-18T08:58:16;100075.91;;;38.13;22.00
49627;BME280;35527;54.616;39.786;2022-08-18T09:01:54;100076.16;;;38.46;20.74
49627;BME280;35527;54.616;39.786;2022-08-18T09:05:11;100060.22;;;37.37;21.58
49627;BME280;35527;54.616;39.786;2022-08-18T09:15:29;100078.94;;;34.75;23.22
49627;BME280;35527;54.616;39.786;2022-08-18T09:21:59;100080.81;;;32.72;25.72
49627;BME280;35527;54.616;39.786;2022-08-18T09:28:56;100071.78;;;31.74;27.06
49627;BME280;35527;54.616;39.786;2022-08-18T09:38:43;100077.66;;;30.37;30.21
49627;BME280;35527;54.616;39.786;2022-08-18T09:42:12;100051.72;;;29.85;30.41
49627;BME280;35527;54.616;39.786;2022-08-18T09:48:37;100058.34;;;28.32;32.96
49627;BME280;35527;54.616;39.786;2022-08-18T09:51:42;100064.50;;;28.32;33.52
49627;BME280;35527;54.616;39.786;2022-08-18T09:54:51;100066.00;;;28.18;34.20
49627;BME280;35527;54.616;39.786;2022-08-18T10:01:37;100094.97;;;28.21;35.23
49627;BME280;35527;54.616;39.786;2022-08-18T10:04:43;100083.34;;;28.22;36.02
49627;BME280;35527;54.616;39.786;2022-08-18T10:11:25;100080.75;;;27.47;37.42
49627;BME280;35527;54.616;39.786;2022-08-18T10:21:29;100084.56;;;26.68;37.99
49627;BME280;35527;54.616;39.786;2022-08-18T10:24:55;100074.47;;;26.27;38.99
49627;BME280;35527;54.616;39.786;2022-08-18T10:28:07;100064.34;;;26.05;39.64
49627;BME280;35527;54.616;39.786;2022-08-18T10:31:18;100058.53;;;26.01;40.06
49627;BME280;35527;54.616;39.786;2022-08-18T10:34:42;100079.84;;;26.18;40.66
49627;BME280;35527;54.616;39.786;2022-08-18T10:37:47;100071.81;;;26.27;41.08
49627;BME280;35527;54.616;39.786;2022-08-18T10:40:59;100084.59;;;26.32;41.45
49627;BME280;35527;54.616;39.786;2022-08-18T10:44:13;100072.22;;;26.41;41.65
49627;BME280;35527;54.616;39.786;2022-08-18T10:47:30;100072.28;;;26.49;41.70
49627;BME280;35527;54.616;39.786;2022-08-18T10:54:23;100065.94;;;26.42;43.04
49627;BME280;35527;54.616;39.786;2022-08-18T11:05:03;100039.91;;;26.45;42.48
49627;BME280;35527;54.616;39.786;2022-08-18T11:08:13;100070.44;;;26.49;42.09
49627;BME280;35527;54.616;39.786;2022-08-18T11:11:22;100076.47;;;26.51;42.04
49627;BME280;35527;54.616;39.786;2022-08-18T11:14:41;100072.16;;;26.50;42.07
49627;BME280;35527;54.616;39.786;2022-08-18T11:24:28;100079.94;;;26.26;42.57
49627;BME280;35527;54.616;39.786;2022-08-18T11:27:33;100086.69;;;26.20;43.01
49627;BME280;35527;54.616;39.786;2022-08-18T11:30:40;100073.50;;;26.11;43.75
49627;BME280;35527;54.616;39.786;2022-08-18T11:33:44;100089.84;;;26.24;44.61
49627;BME280;35527;54.616;39.786;2022-08-18T11:36:59;100089.91;;;26.32;45.20
49627;BME280;35527;54.616;39.786;2022-08-18T11:40:53;100078.53;;;26.40;45.18
49627;BME280;35527;54.616;39.786;2022-08-18T11:43:58;100097.63;;;26.43;46.25
49627;BME280;35527;54.616;39.786;2022-08-18T11:47:14;100082.44;;;26.27;46.92
49627;BME280;35527;54.616;39.786;2022-08-18T11:50:26;100091.03;;;26.21;48.21
49627;BME280;35527;54.616;39.786;2022-08-18T11:53:49;100102.69;;;26.11;48.46
49627;BME280;35527;54.616;39.786;2022-08-18T11:57:41;100101.50;;;26.05;48.96
49627;BME280;35527;54.616;39.786;2022-08-18T12:04:13;100099.41;;;25.81;50.17
49627;BME280;35527;54.616;39.786;2022-08-18T12:07:48;100110.16;;;25.61;51.30
49627;BME280;35527;54.616;39.786;2022-08-18T12:14:32;100120.19;;;25.40;52.24
49627;BME280;35527;54.616;39.786;2022-08-18T12:17:37;100117.69;;;25.38;52.37
49627;BME280;35527;54.616;39.786;2022-08-18T12:20:40;100096.00;;;25.25;52.73
49627;BME280;35527;54.616;39.786;2022-08-18T12:23:47;100116.47;;;25.33;53.47
49627;BME280;35527;54.616;39.786;2022-08-18T12:26:51;100108.03;;;25.20;53.64
49627;BME280;35527;54.616;39.786;2022-08-18T12:29:57;100108.38;;;24.97;53.92
49627;BME280;35527;54.616;39.786;2022-08-18T12:33:02;100084.88;;;24.84;54.98
49627;BME280;35527;54.616;39.786;2022-08-18T12:36:05;100106.88;;;24.85;54.20
49627;BME280;35527;54.616;39.786;2022-08-18T12:39:08;100096.78;;;24.61;55.42
49627;BME280;35527;54.616;39.786;2022-08-18T12:42:13;100108.47;;;24.68;55.74
49627;BME280;35527;54.616;39.786;2022-08-18T12:45:16;100132.81;;;24.81;56.00
49627;BME280;35527;54.616;39.786;2022-08-18T12:48:21;100132.66;;;24.83;55.56
49627;BME280;35527;54.616;39.786;2022-08-18T12:51:24;100140.47;;;24.84;55.98
49627;BME280;35527;54.616;39.786;2022-08-18T12:54:26;100153.44;;;24.78;56.46
49627;BME280;35527;54.616;39.786;2022-08-18T12:57:30;100147.47;;;24.66;57.34
49627;BME280;35527;54.616;39.786;2022-08-18T13:00:34;100133.28;;;24.57;58.54
49627;BME280;35527;54.616;39.786;2022-08-18T13:04:04;100153.75;;;24.65;59.29
49627;BME280;35527;54.616;39.786;2022-08-18T13:07:12;100128.97;;;24.46;60.98
49627;BME280;35527;54.616;39.786;2022-08-18T13:10:16;100146.22;;;24.60;61.87
49627;BME280;35527;54.616;39.786;2022-08-18T13:13:20;100145.41;;;24.60;62.63
49627;BME280;35527;54.616;39.786;2022-08-18T13:16:48;100145.94;;;24.63;63.38
49627;BME280;35527;54.616;39.786;2022-08-18T13:19:54;100141.59;;;24.72;63.85
49627;BME280;35527;54.616;39.786;2022-08-18T13:22:58;100135.34;;;24.73;64.36
49627;BME280;35527;54.616;39.786;2022-08-18T13:26:06;100130.56;;;24.86;62.99
49627;BME280;35527;54.616;39.786;2022-08-18T13:29:10;100148.50;;;25.02;62.84
49627;BME280;35527;54.616;39.786;2022-08-18T13:32:14;100135.84;;;24.96;62.11
49627;BME280;35527;54.616;39.786;2022-08-18T13:35:17;100143.50;;;24.99;61.65
49627;BME280;35527;54.616;39.786;2022-08-18T13:38:22;100136.91;;;25.03;60.46
49627;BME280;35527;54.616;39.786;2022-08-18T13:41:26;100141.78;;;25.08;60.27
49627;BME280;35527;54.616;39.786;2022-08-18T13:44:31;100141.97;;;24.97;61.45
49627;BME280;35527;54.616;39.786;2022-08-18T13:47:36;100147.84;;;24.81;60.91
49627;BME280;35527;54.616;39.786;2022-08-18T13:50:39;100151.91;;;24.75;61.33
49627;BME280;35527;54.616;39.786;2022-08-18T13:53:44;100148.47;;;24.65;61.53
49627;BME280;35527;54.616;39.786;2022-08-18T13:56:54;100145.13;;;24.63;61.69
49627;BME280;35527;54.616;39.786;2022-08-18T14:00:23;100156.94;;;24.68;62.19
49627;BME280;35527;54.616;39.786;2022-08-18T14:03:28;100149.00;;;24.68;62.61
49627;BME280;35527;54.616;39.786;2022-08-18T14:06:32;100150.72;;;24.50;63.45
49627;BME280;35527;54.616;39.786;2022-08-18T14:09:36;100145.25;;;24.32;64.67
49627;BME280;35527;54.616;39.786;2022-08-18T14:12:39;100157.94;;;24.28;65.19
49627;BME280;35527;54.616;39.786;2022-08-18T14:15:45;100145.00;;;24.16;65.48
49627;BME280;35527;54.616;39.786;2022-08-18T14:18:50;100162.69;;;24.15;65.38
49627;BME280;35527;54.616;39.786;2022-08-18T14:22:28;100166.00;;;24.08;66.33
49627;BME280;35527;54.616;39.786;2022-08-18T14:25:49;100163.38;;;24.08;67.20
49627;BME280;35527;54.616;39.786;2022-08-18T14:29:12;100155.59;;;24.16;65.97
49627;BME280;35527;54.616;39.786;2022-08-18T14:32:41;100151.25;;;24.24;64.76
49627;BME280;35527;54.616;39.786;2022-08-18T14:35:45;100166.72;;;24.19;64.10
49627;BME280;35527;54.616;39.786;2022-08-18T14:38:50;100161.69;;;24.16;64.56
49627;BME280;35527;54.616;39.786;2022-08-18T14:41:56;100151.81;;;23.99;64.96
49627;BME280;35527;54.616;39.786;2022-08-18T14:44:59;100183.13;;;24.03;65.75
49627;BME280;35527;54.616;39.786;2022-08-18T14:48:05;100166.69;;;24.00;66.22
49627;BME280;35527;54.616;39.786;2022-08-18T14:51:09;100176.44;;;23.99;66.44
49627;BME280;35527;54.616;39.786;2022-08-18T14:54:15;100162.22;;;24.00;65.04
49627;BME280;35527;54.616;39.786;2022-08-18T14:57:18;100166.97;;;23.97;64.49
49627;BME280;35527;54.616;39.786;2022-08-18T15:00:27;100167.81;;;23.97;63.92
49627;BME280;35527;54.616;39.786;2022-08-18T15:03:34;100146.50;;;23.89;64.23
49627;BME280;35527;54.616;39.786;2022-08-18T15:06:39;100132.56;;;23.77;63.43
49627;BME280;35527;54.616;39.786;2022-08-18T15:09:46;100156.94;;;23.81;63.61
49627;BME280;35527;54.616;39.786;2022-08-18T15:12:54;100161.66;;;23.77;62.65
49627;BME280;35527;54.616;39.786;2022-08-18T15:15:57;100150.25;;;23.77;63.00
49627;BME280;35527;54.616;39.786;2022-08-18T15:19:03;100140.94;;;23.82;61.86
49627;BME280;35527;54.616;39.786;2022-08-18T15:22:08;100146.66;;;23.78;61.64
49627;BME280;35527;54.616;39.786;2022-08-18T15:25:31;100127.25;;;23.58;61.77
49627;BME280;35527;54.616;39.786;2022-08-18T15:28:48;100150.59;;;23.63;62.80
49627;BME280;35527;54.616;39.786;2022-08-18T15:31:54;100157.00;;;23.60;61.82
49627;BME280;35527;54.616;39.786;2022-08-18T15:35:24;100150.28;;;23.46;60.49
49627;BME280;35527;54.616;39.786;2022-08-18T15:38:30;100127.13;;;23.29;60.87
49627;BME280;35527;54.616;39.786;2022-08-18T15:41:39;100147.34;;;23.39;59.41
49627;BME280;35527;54.616;39.786;2022-08-18T15:44:42;100151.91;;;23.37;58.33
49627;BME280;35527;54.616;39.786;2022-08-18T15:47:46;100148.00;;;23.32;56.85
49627;BME280;35527;54.616;39.786;2022-08-18T15:50:51;100125.28;;;23.10;57.19
49627;BME280;35527;54.616;39.786;2022-08-18T15:53:56;100153.25;;;23.22;56.39
49627;BME280;35527;54.616;39.786;2022-08-18T15:57:00;100154.63;;;23.16;56.17
49627;BME280;35527;54.616;39.786;2022-08-18T16:00:08;100154.63;;;23.16;55.88
49627;BME280;35527;54.616;39.786;2022-08-18T16:03:15;100145.56;;;23.09;54.87
49627;BME280;35527;54.616;39.786;2022-08-18T16:06:23;100177.56;;;23.16;55.20
49627;BME280;35527;54.616;39.786;2022-08-18T16:09:28;100157.75;;;23.01;54.90
49627;BME280;35527;54.616;39.786;2022-08-18T16:12:32;100109.78;;;22.75;54.57
49627;BME280;35527;54.616;39.786;2022-08-18T16:15:39;100142.25;;;22.86;54.87
49627;BME280;35527;54.616;39.786;2022-08-18T16:18:43;100152.78;;;22.86;53.79
49627;BME280;35527;54.616;39.786;2022-08-18T16:21:50;100169.53;;;22.97;54.14
49627;BME280;35527;54.616;39.786;2022-08-18T16:24:56;100182.00;;;22.94;54.60
49627;BME280;35527;54.616;39.786;2022-08-18T16:28:00;100145.56;;;22.88;54.05
49627;BME280;35527;54.616;39.786;2022-08-18T16:31:03;100170.28;;;22.87;54.74
49627;BME280;35527;54.616;39.786;2022-08-18T16:34:07;100174.03;;;22.85;54.95
49627;BME280;35527;54.616;39.786;2022-08-18T16:37:11;100153.56;;;22.77;54.21
49627;BME280;35527;54.616;39.786;2022-08-18T16:40:16;100166.69;;;22.88;53.99
49627;BME280;35527;54.616;39.786;2022-08-18T16:43:20;100167.19;;;22.82;54.66
49627;BME280;35527;54.616;39.786;2022-08-18T16:46:30;100174.66;;;22.77;55.43
49627;BME280;35527;54.616;39.786;2022-08-18T16:49:35;100142.75;;;22.59;56.43
49627;BME280;35527;54.616;39.786;2022-08-18T16:52:41;100163.50;;;22.64;56.32
49627;BME280;35527;54.616;39.786;2022-08-18T16:55:44;100174.66;;;22.56;55.92
49627;BME280;35527;54.616;39.786;2022-08-18T16:58:47;100159.53;;;22.37;55.50
49627;BME280;35527;54.616;39.786;2022-08-18T17:02:14;100169.28;;;22.25;56.95
49627;BME280;35527;54.616;39.786;2022-08-18T17:05:40;100179.00;;;22.25;56.96
49627;BME280;35527;54.616;39.786;2022-08-18T17:08:44;100159.97;;;22.10;56.90
49627;BME280;35527;54.616;39.786;2022-08-18T17:11:48;100168.59;;;22.12;57.62
49627;BME280;35527;54.616;39.786;2022-08-18T17:14:53;100167.41;;;22.05;58.26
49627;BME280;35527;54.616;39.786;2022-08-18T17:17:57;100168.44;;;21.93;59.14
49627;BME280;35527;54.616;39.786;2022-08-18T17:21:01;100161.50;;;21.80;59.42
49627;BME280;35527;54.616;39.786;2022-08-18T17:24:08;100176.94;;;21.85;58.85
49627;BME280;35527;54.616;39.786;2022-08-18T17:27:16;100178.72;;;21.96;57.95
49627;BME280;35527;54.616;39.786;2022-08-18T17:30:20;100182.31;;;21.95;57.75
49627;BME280;35527;54.616;39.786;2022-08-18T17:33:28;100182.44;;;21.93;58.28
49627;BME280;35527;54.616;39.786;2022-08-18T17:36:39;100183.25;;;21.94;58.01
49627;BME280;35527;54.616;39.786;2022-08-18T17:39:57;100188.53;;;21.94;57.74
49627;BME280;35527;54.616;39.786;2022-08-18T17:43:09;100180.03;;;21.90;58.37
49627;BME280;35527;54.616;39.786;2022-08-18T17:46:22;100195.28;;;21.87;58.25
49627;BME280;35527;54.616;39.786;2022-08-18T17:49:40;100194.22;;;21.78;58.48
49627;BME280;35527;54.616;39.786;2022-08-18T17:53:06;100182.38;;;21.72;59.05
49627;BME280;35527;54.616;39.786;2022-08-18T17:56:28;100194.94;;;21.69;59.17
49627;BME280;35527;54.616;39.786;2022-08-18T17:59:47;100196.38;;;21.62;59.58
49627;BME280;35527;54.616;39.786;2022-08-18T18:02:55;100187.16;;;21.56;60.64
49627;BME280;35527;54.616;39.786;2022-08-18T18:06:08;100186.69;;;21.51;60.81
49627;BME280;35527;54.616;39.786;2022-08-18T18:12:28;100182.88;;;21.44;61.31
49627;BME280;35527;54.616;39.786;2022-08-18T18:15:34;100184.06;;;21.40;61.25
49627;BME280;35527;54.616;39.786;2022-08-18T18:18:43;100198.78;;;21.42;61.54
49627;BME280;35527;54.616;39.786;2022-08-18T18:22:01;100198.41;;;21.35;61.85
49627;BME280;35527;54.616;39.786;2022-08-18T18:25:10;100191.22;;;21.26;62.35
49627;BME280;35527;54.616;39.786;2022-08-18T18:28:25;100196.59;;;21.25;62.58
49627;BME280;35527;54.616;39.786;2022-08-18T18:31:31;100183.91;;;21.19;63.26
49627;BME280;35527;54.616;39.786;2022-08-18T18:34:37;100188.59;;;21.15;62.98
49627;BME280;35527;54.616;39.786;2022-08-18T18:41:01;100183.16;;;21.05;63.01